Time;durP1;ratioP1;P1;durP2;ratioP2;P2;SDS_P1;SDS_P2;PMS_P1;PMS_P2;Temp;Humidity;BMP_temperature;BMP_pressure;BME280_temperature;BME280_humidity;BME280_pressure;Samples;Min_cycle;Max_cycle;Signal;HPM_P1;HPM_P2
2023/09/06 00:02:01;;;;;;;6.67;4.27;;;14.50;36.80;;;;;;5113892;28;20186;-69
2023/09/06 00:04:26;;;;;;;7.60;3.73;;;14.40;38.10;;;;;;5113944;28;20196;-69
2023/09/06 00:06:52;;;;;;;6.40;4.53;;;14.40;38.50;;;;;;5113855;28;20214;-69
2023/09/06 00:09:18;;;;;;;6.20;4.97;;;14.30;39.60;;;;;;5113914;28;20202;-69
2023/09/06 00:11:44;;;;;;;6.13;4.83;;;14.40;41.80;;;;;;5113600;28;20208;-70
2023/09/06 00:14:09;;;;;;;5.10;3.27;;;14.30;42.40;;;;;;5113966;28;20930;-69
2023/09/06 00:16:35;;;;;;;4.90;3.73;;;14.30;41.70;;;;;;5113842;28;20193;-69
2023/09/06 00:19:01;;;;;;;4.97;3.80;;;14.30;41.50;;;;;;5114480;28;20177;-69
2023/09/06 00:21:27;;;;;;;10.47;4.73;;;14.30;41.70;;;;;;5098545;28;20212;-69
2023/09/06 00:23:52;;;;;;;5.90;4.20;;;14.30;43.10;;;;;;5093154;28;20427;-69
2023/09/06 00:26:18;;;;;;;5.90;3.80;;;14.40;40.90;;;;;;5093335;28;20527;-69
2023/09/06 00:28:45;;;;;;;5.87;4.30;;;14.30;40.60;;;;;;5093286;28;20638;-69
2023/09/06 00:31:11;;;;;;;6.70;4.27;;;14.40;41.30;;;;;;5093224;28;20655;-70
2023/09/06 00:33:37;;;;;;;6.13;4.50;;;14.40;40.90;;;;;;5092921;28;20427;-69
2023/09/06 00:36:05;;;;;;;4.60;3.53;;;14.40;40.80;;;;;;5093400;28;20199;-69
2023/09/06 00:38:30;;;;;;;7.87;4.37;;;14.40;40.20;;;;;;5093296;28;20177;-69
2023/09/06 00:40:57;;;;;;;8.27;3.87;;;14.40;40.10;;;;;;5092997;28;20472;-69
2023/09/06 00:43:22;;;;;;;5.83;3.40;;;14.30;40.00;;;;;;5092793;28;20185;-69
2023/09/06 00:45:50;;;;;;;4.87;4.03;;;14.40;40.00;;;;;;5093514;28;20441;-70
2023/09/06 00:48:29;;;;;;;5.60;4.67;;;14.40;40.10;;;;;;5093530;28;20641;-69
2023/09/06 00:50:56;;;;;;;5.73;4.30;;;14.40;39.50;;;;;;5093572;28;20789;-69
2023/09/06 00:53:23;;;;;;;6.10;4.20;;;14.30;40.10;;;;;;5093045;28;20421;-69
2023/09/06 00:55:50;;;;;;;7.03;5.10;;;14.30;40.50;;;;;;5092936;28;20489;-69
2023/09/06 00:58:18;;;;;;;9.13;4.60;;;14.30;40.70;;;;;;5093054;28;20908;-69
2023/09/06 01:00:45;;;;;;;6.73;5.40;;;14.20;41.70;;;;;;5092851;28;20455;-69
2023/09/06 01:03:11;;;;;;;5.00;4.10;;;14.20;41.50;;;;;;5079908;28;20793;-69
2023/09/06 01:05:47;;;;;;;6.50;4.23;;;14.20;41.70;;;;;;5114376;28;20419;-69
2023/09/06 01:08:18;;;;;;;5.63;4.40;;;14.10;43.20;;;;;;5114046;28;20178;-70
2023/09/06 01:10:45;;;;;;;5.80;4.03;;;14.00;43.80;;;;;;5114032;28;20442;-69
2023/09/06 01:13:10;;;;;;;7.00;4.10;;;14.00;43.60;;;;;;5113254;28;20418;-69
2023/09/06 01:15:41;;;;;;;5.60;3.70;;;14.00;44.90;;;;;;5103795;28;20517;-69
2023/09/06 01:18:07;;;;;;;7.60;3.57;;;13.90;44.90;;;;;;5092681;28;20623;-68
2023/09/06 01:20:42;;;;;;;4.57;3.67;;;13.80;46.50;;;;;;5092524;28;20461;-68
2023/09/06 01:23:35;;;;;;;6.90;4.30;;;13.80;49.50;;;;;;5092312;28;20457;-69
2023/09/06 01:26:02;;;;;;;7.40;4.40;;;13.80;48.40;;;;;;5089580;28;20484;-69
2023/09/06 01:28:28;;;;;;;6.57;3.57;;;13.70;49.00;;;;;;5092524;28;20414;-69
2023/09/06 01:30:54;;;;;;;6.20;4.00;;;13.70;49.20;;;;;;5092900;28;20769;-68
2023/09/06 01:33:22;;;;;;;5.70;4.33;;;13.60;50.50;;;;;;5092289;28;20270;-69
2023/09/06 01:35:51;;;;;;;7.70;5.43;;;13.60;50.60;;;;;;5092326;28;20783;-68
2023/09/06 01:38:16;;;;;;;5.37;4.87;;;13.60;51.30;;;;;;5092205;28;20446;-69
2023/09/06 01:40:43;;;;;;;11.13;5.30;;;13.50;52.40;;;;;;5092210;28;20561;-69
2023/09/06 01:43:08;;;;;;;4.97;3.80;;;13.50;52.50;;;;;;5091944;28;20179;-69
2023/09/06 01:45:38;;;;;;;7.57;4.87;;;13.50;52.50;;;;;;5092550;28;20440;-69
2023/09/06 01:48:04;;;;;;;8.27;5.47;;;13.40;53.40;;;;;;5092602;28;20194;-69
2023/09/06 01:50:29;;;;;;;4.73;4.20;;;13.40;53.40;;;;;;5092579;28;20468;-69
2023/09/06 01:52:55;;;;;;;6.20;4.90;;;13.40;53.90;;;;;;5092092;28;20551;-69
2023/09/06 01:55:21;;;;;;;4.73;3.37;;;13.30;54.30;;;;;;5092437;28;20692;-69
2023/09/06 01:57:47;;;;;;;5.73;4.03;;;13.30;54.30;;;;;;5093159;28;20612;-69
2023/09/06 02:00:19;;;;;;;7.23;4.63;;;13.20;55.60;;;;;;5074353;28;20464;-68
2023/09/06 02:02:46;;;;;;;5.97;5.33;;;13.20;57.90;;;;;;5092283;28;20261;-68
2023/09/06 02:05:12;;;;;;;6.47;4.80;;;13.10;57.90;;;;;;5092301;28;20418;-69
2023/09/06 02:07:37;;;;;;;5.10;4.20;;;13.10;58.10;;;;;;5092366;28;20428;-69
2023/09/06 02:10:07;;;;;;;4.50;3.93;;;13.20;58.50;;;;;;5092417;28;20415;-69
2023/09/06 02:12:33;;;;;;;4.93;4.30;;;13.20;57.20;;;;;;5092705;28;20181;-69
2023/09/06 02:14:59;;;;;;;8.97;5.50;;;13.10;57.80;;;;;;5077905;28;20441;-69
2023/09/06 02:17:25;;;;;;;7.10;4.83;;;13.10;58.80;;;;;;5116575;28;20432;-69
2023/09/06 02:19:50;;;;;;;9.50;5.90;;;13.00;59.00;;;;;;5116150;28;20676;-69
2023/09/06 02:22:17;;;;;;;7.00;4.93;;;13.00;59.00;;;;;;5115920;28;20175;-69
2023/09/06 02:24:42;;;;;;;9.40;4.77;;;13.00;59.80;;;;;;5116397;28;20854;-69
2023/09/06 02:27:12;;;;;;;6.60;5.13;;;12.90;59.50;;;;;;5116079;28;20426;-69
2023/09/06 02:29:37;;;;;;;7.00;4.00;;;12.90;59.80;;;;;;5097886;28;20178;-70
2023/09/06 02:32:03;;;;;;;6.83;4.83;;;12.80;59.40;;;;;;5116149;28;20423;-69
2023/09/06 02:34:29;;;;;;;8.23;5.07;;;12.80;60.90;;;;;;5115989;28;20185;-68
2023/09/06 02:36:56;;;;;;;7.43;4.90;;;12.80;61.30;;;;;;5116054;28;20434;-69
2023/09/06 02:39:22;;;;;;;11.00;5.47;;;12.80;63.10;;;;;;5116114;28;20169;-69
2023/09/06 02:41:47;;;;;;;8.03;5.10;;;12.70;63.70;;;;;;5115808;28;20463;-69
2023/09/06 02:44:13;;;;;;;8.23;5.50;;;12.70;62.80;;;;;;5116045;28;20549;-69
2023/09/06 02:46:40;;;;;;;5.83;4.40;;;12.70;61.70;;;;;;5115842;28;20192;-69
2023/09/06 02:49:12;;;;;;;6.77;4.90;;;12.60;61.10;;;;;;5115899;28;20160;-69
2023/09/06 02:51:42;;;;;;;6.80;4.80;;;12.60;62.20;;;;;;5116068;28;20827;-70
2023/09/06 02:54:08;;;;;;;5.37;4.33;;;12.60;62.50;;;;;;5116274;28;20411;-69
2023/09/06 02:56:36;;;;;;;8.13;5.40;;;12.50;63.50;;;;;;5115739;28;20450;-69
2023/09/06 02:59:03;;;;;;;9.83;5.80;;;12.50;62.20;;;;;;5116108;28;20937;-69
2023/09/06 03:01:30;;;;;;;8.10;5.50;;;12.50;63.50;;;;;;5115639;28;20581;-69
2023/09/06 03:03:57;;;;;;;8.63;5.47;;;12.50;62.40;;;;;;5115450;28;20844;-69
2023/09/06 03:06:32;;;;;;;6.67;5.60;;;12.50;64.20;;;;;;5115268;28;20821;-68
2023/09/06 03:08:59;;;;;;;7.90;6.10;;;12.40;63.40;;;;;;5115575;28;20439;-68
2023/09/06 03:11:25;;;;;;;7.40;5.40;;;12.40;63.40;;;;;;5115797;28;20413;-68
2023/09/06 03:13:55;;;;;;;7.47;6.33;;;12.40;63.90;;;;;;5115940;28;20919;-70
2023/09/06 03:16:22;;;;;;;8.50;6.17;;;12.30;64.30;;;;;;5115853;28;20200;-69
2023/09/06 03:18:49;;;;;;;8.30;6.60;;;12.30;64.20;;;;;;5115420;28;20417;-69
2023/09/06 03:21:16;;;;;;;7.30;4.67;;;12.30;65.70;;;;;;5115127;28;20821;-69
2023/09/06 03:23:44;;;;;;;6.97;4.77;;;12.20;65.30;;;;;;5115350;28;20421;-69
2023/09/06 03:26:10;;;;;;;7.03;6.33;;;12.10;64.70;;;;;;5115156;28;20430;-70
2023/09/06 03:28:41;;;;;;;6.60;5.27;;;12.10;65.50;;;;;;5115288;28;20418;-70
2023/09/06 03:31:12;;;;;;;8.03;6.00;;;12.10;65.40;;;;;;5114995;28;20921;-70
2023/09/06 03:33:41;;;;;;;7.33;5.90;;;12.00;65.10;;;;;;5096377;28;20790;-70
2023/09/06 03:36:09;;;;;;;5.80;5.10;;;12.00;67.10;;;;;;5114757;28;20433;-70
2023/09/06 03:38:36;;;;;;;6.60;5.90;;;11.90;68.00;;;;;;5114930;28;20911;-70
2023/09/06 03:41:07;;;;;;;6.33;5.00;;;11.90;68.00;;;;;;5114843;28;20480;-70
2023/09/06 03:43:33;;;;;;;7.93;5.90;;;11.90;68.00;;;;;;5095910;28;20418;-70
2023/09/06 03:46:04;;;;;;;7.57;5.10;;;11.80;70.70;;;;;;5115466;28;20426;-71
2023/09/06 03:48:30;;;;;;;9.70;5.40;;;11.80;71.10;;;;;;5115565;28;20491;-70
2023/09/06 03:50:57;;;;;;;7.40;5.50;;;11.80;72.40;;;;;;5115209;28;20500;-70
2023/09/06 03:53:25;;;;;;;10.83;5.60;;;11.70;73.80;;;;;;5114188;28;20479;-70
2023/09/06 03:55:51;;;;;;;7.00;5.50;;;11.80;74.20;;;;;;5114110;28;20445;-70
2023/09/06 03:58:17;;;;;;;10.40;5.43;;;11.80;73.80;;;;;;5114480;28;20788;-70
2023/09/06 04:00:44;;;;;;;7.13;5.93;;;11.70;73.20;;;;;;5114320;28;20458;-70
2023/09/06 04:03:13;;;;;;;8.63;6.47;;;11.70;73.80;;;;;;5113886;28;20164;-70
2023/09/06 04:05:40;;;;;;;6.13;5.50;;;11.70;75.30;;;;;;5114004;28;20409;-70
2023/09/06 04:08:09;;;;;;;6.10;4.97;;;11.80;73.50;;;;;;5114655;28;20931;-70
2023/09/06 04:10:36;;;;;;;13.80;7.60;;;11.80;70.50;;;;;;5114573;28;20851;-70
2023/09/06 04:13:03;;;;;;;6.70;5.60;;;11.80;68.60;;;;;;5114448;28;20414;-69
2023/09/06 04:15:29;;;;;;;8.70;6.23;;;11.70;67.80;;;;;;5114260;28;20912;-69
2023/09/06 04:18:00;;;;;;;7.80;6.13;;;11.60;69.30;;;;;;5095679;28;20425;-69
2023/09/06 04:20:36;;;;;;;8.43;5.73;;;11.70;69.20;;;;;;5114059;28;20523;-69
2023/09/06 04:23:08;;;;;;;7.73;5.90;;;11.70;67.80;;;;;;5113578;28;20407;-69
2023/09/06 04:25:41;;;;;;;7.50;6.10;;;11.70;68.00;;;;;;5113812;28;20418;-69
2023/09/06 04:28:07;;;;;;;9.07;6.90;;;11.60;67.70;;;;;;5113641;28;20411;-70
2023/09/06 04:30:35;;;;;;;7.50;6.20;;;11.60;68.10;;;;;;5113561;28;20923;-69
2023/09/06 04:33:03;;;;;;;7.33;6.60;;;11.50;70.20;;;;;;5095164;28;20418;-70
2023/09/06 04:35:38;;;;;;;6.07;4.97;;;11.50;69.50;;;;;;5113579;28;20501;-70
2023/09/06 04:38:04;;;;;;;7.33;5.77;;;11.40;69.90;;;;;;5113159;28;20406;-69
2023/09/06 04:40:29;;;;;;;8.83;7.40;;;11.40;72.00;;;;;;5099461;28;20550;-70
2023/09/06 04:42:55;;;;;;;8.17;5.77;;;11.40;72.10;;;;;;5093051;28;20418;-69
2023/09/06 04:45:21;;;;;;;8.87;7.03;;;11.30;72.50;;;;;;5093240;28;20191;-69
2023/09/06 04:47:47;;;;;;;7.67;6.47;;;11.40;72.60;;;;;;5092974;28;20932;-70
2023/09/06 04:50:13;;;;;;;9.10;6.33;;;11.40;73.60;;;;;;5093217;28;20234;-70
2023/09/06 04:52:46;;;;;;;6.03;5.43;;;11.50;71.40;;;;;;5093145;28;20179;-70
2023/09/06 04:55:13;;;;;;;8.40;6.63;;;11.50;66.30;;;;;;5093241;28;20272;-70
2023/09/06 04:57:42;;;;;;;8.80;6.77;;;11.50;66.10;;;;;;5093114;28;20450;-74
2023/09/06 05:00:17;;;;;;;6.67;5.00;;;11.40;66.00;;;;;;5093253;28;20453;-71
2023/09/06 05:02:44;;;;;;;11.27;7.10;;;11.40;66.90;;;;;;5092970;28;20488;-69
2023/09/06 05:05:09;;;;;;;7.90;6.30;;;11.40;67.80;;;;;;5093188;28;20415;-70
2023/09/06 05:07:35;;;;;;;7.53;6.03;;;11.50;72.70;;;;;;5093523;28;20476;-70
2023/09/06 05:10:03;;;;;;;8.90;6.33;;;11.50;72.90;;;;;;5092818;28;20181;-69
2023/09/06 05:12:29;;;;;;;7.67;6.80;;;11.60;72.70;;;;;;5092537;28;20407;-68
2023/09/06 05:14:55;;;;;;;9.57;6.27;;;11.60;71.70;;;;;;5092683;28;20935;-69
2023/09/06 05:17:20;;;;;;;8.37;6.63;;;11.70;70.30;;;;;;5093024;28;20196;-69
2023/09/06 05:19:50;;;;;;;6.37;5.50;;;11.70;69.80;;;;;;5092663;28;20773;-69
2023/09/06 05:22:16;;;;;;;8.07;6.10;;;11.70;68.60;;;;;;5092412;28;20665;-70
2023/09/06 05:24:41;;;;;;;7.70;5.63;;;11.70;67.80;;;;;;5092610;28;20422;-70
2023/09/06 05:27:07;;;;;;;8.03;6.20;;;11.70;67.10;;;;;;5092369;28;20193;-70
2023/09/06 05:29:32;;;;;;;10.37;9.10;;;11.80;65.20;;;;;;5092976;28;20165;-71
2023/09/06 05:31:58;;;;;;;10.70;6.30;;;11.80;64.90;;;;;;5093254;28;20222;-71
2023/09/06 05:34:24;;;;;;;12.00;8.23;;;11.90;65.30;;;;;;5093508;28;20233;-71
2023/09/06 05:36:49;;;;;;;7.50;6.70;;;12.10;62.10;;;;;;5092686;28;20189;-69
2023/09/06 05:39:15;;;;;;;7.67;6.20;;;13.60;66.60;;;;;;5092415;28;20174;-69
2023/09/06 05:41:41;;;;;;;6.43;5.10;;;15.70;48.00;;;;;;5092142;28;20205;-69
2023/09/06 05:44:07;;;;;;;5.87;5.23;;;17.90;28.00;;;;;;5091931;28;20169;-69
2023/09/06 05:46:33;;;;;;;6.00;4.10;;;19.80;25.10;;;;;;5097907;28;20207;-69
2023/09/06 05:48:58;;;;;;;12.07;8.13;;;21.20;11.20;;;;;;5112588;28;20419;-70
2023/09/06 05:51:24;;;;;;;8.90;5.70;;;22.40;6.30;;;;;;5114880;28;20177;-70
2023/09/06 05:53:50;;;;;;;11.33;5.80;;;23.40;4.10;;;;;;5116730;28;20263;-69
2023/09/06 05:56:15;;;;;;;10.23;6.30;;;23.90;2.40;;;;;;5117066;28;20211;-69
2023/09/06 05:58:42;;;;;;;27.30;11.97;;;24.60;1.00;;;;;;5116589;28;20645;-69
2023/09/06 06:01:08;;;;;;;9.27;6.27;;;24.90;1.00;;;;;;5117096;28;20560;-69
2023/09/06 06:03:36;;;;;;;7.33;6.63;;;25.40;1.00;;;;;;5117235;28;20410;-69
2023/09/06 06:06:01;;;;;;;5.23;4.73;;;26.00;1.00;;;;;;5115979;28;20437;-69
2023/09/06 06:08:27;;;;;;;6.50;5.30;;;26.50;1.00;;;;;;5115633;28;20422;-70
2023/09/06 06:10:52;;;;;;;8.83;6.57;;;27.30;1.00;;;;;;5116171;28;20189;-70
2023/09/06 06:13:18;;;;;;;7.33;6.67;;;27.70;1.00;;;;;;5115956;28;20173;-69
2023/09/06 06:15:43;;;;;;;6.37;5.87;;;28.10;1.00;;;;;;5105622;28;20658;-69
2023/09/06 06:18:09;;;;;;;7.00;6.40;;;28.20;1.00;;;;;;5095562;28;20209;-72
2023/09/06 06:20:36;;;;;;;7.23;6.37;;;29.00;1.00;;;;;;5095574;28;20263;-70
2023/09/06 06:23:01;;;;;;;7.73;7.03;;;29.40;1.00;;;;;;5095840;28;20201;-69
2023/09/06 06:25:27;;;;;;;6.60;5.83;;;30.20;1.00;;;;;;5115680;28;20949;-70
2023/09/06 06:27:52;;;;;;;6.70;6.10;;;30.40;1.00;;;;;;5115701;28;20252;-70
2023/09/06 06:30:18;;;;;;;8.70;7.27;;;30.60;1.00;;;;;;5115986;28;20196;-70
2023/09/06 06:32:44;;;;;;;7.17;6.47;;;31.20;1.00;;;;;;5115308;28;20176;-73
2023/09/06 06:35:12;;;;;;;7.50;6.43;;;31.40;1.00;;;;;;5115449;28;20422;-71
2023/09/06 06:37:37;;;;;;;7.37;6.73;;;31.40;1.00;;;;;;5111459;28;20438;-70
2023/09/06 06:40:05;;;;;;;9.00;6.40;;;31.70;1.00;;;;;;5109428;28;20465;-70
2023/09/06 06:42:32;;;;;;;7.23;6.70;;;;;;;;;;5110361;28;20414;-70
2023/09/06 06:44:58;;;;;;;7.27;6.67;;;;;;;;;;5111471;28;20781;-70
2023/09/06 06:47:24;;;;;;;13.43;5.50;;;;;;;;;;5110993;28;20456;-70
2023/09/06 06:49:51;;;;;;;7.10;6.47;;;;;;;;;;5114301;28;20475;-70
2023/09/06 06:52:17;;;;;;;7.17;6.43;;;;;;;;;;5115099;28;20398;-69
2023/09/06 06:54:43;;;;;;;7.67;6.97;;;;;;;;;;5115090;28;20464;-71
2023/09/06 06:57:09;;;;;;;6.93;6.40;;;;;;;;;;5114582;28;20494;-70
2023/09/06 06:59:35;;;;;;;7.50;6.87;;;;;;;;;;5114910;28;20422;-70
2023/09/06 07:02:01;;;;;;;7.10;6.40;;;;;;;;;;5114012;28;20444;-70
2023/09/06 07:04:27;;;;;;;7.77;7.07;;;;;;;;;;5109083;28;20775;-70
2023/09/06 07:06:53;;;;;;;7.70;7.10;;;;;;;;;;5110487;28;20438;-70
2023/09/06 07:09:19;;;;;;;8.57;6.77;;;;;;;;;;5114969;28;20414;-71
2023/09/06 07:11:45;;;;;;;7.90;6.87;;;;;;;;;;5114817;28;20437;-71
2023/09/06 07:14:11;;;;;;;8.00;7.27;;;;;;;;;;5114981;28;20486;-70
2023/09/06 07:16:37;;;;;;;7.83;6.90;;;;;;;;;;5108366;28;20532;-70
2023/09/06 07:19:03;;;;;;;7.27;6.67;;;;;;;;;;5107661;28;20775;-70
2023/09/06 07:21:31;;;;;;;9.80;6.80;;;;;;;;;;5114643;28;20469;-70
2023/09/06 07:23:57;;;;;;;7.57;6.87;;;;;;;;;;5114683;28;20788;-71
2023/09/06 07:26:22;;;;;;;8.10;7.30;;;;;;;;;;5114744;28;20422;-71
2023/09/06 07:28:50;;;;;;;7.63;6.33;;;;;;;;;;5114584;28;20453;-70
2023/09/06 07:31:17;;;;;;;7.67;6.73;;;27.60;1.00;;;;;;5115017;28;20869;-70
2023/09/06 07:33:43;;;;;;;6.53;5.93;;;25.40;1.00;;;;;;5095950;28;20529;-70
2023/09/06 07:36:10;;;;;;;9.03;8.13;;;24.30;1.00;;;;;;5114407;28;20542;-70
2023/09/06 07:38:35;;;;;;;7.60;6.90;;;23.40;1.00;;;;;;5114368;28;20217;-70
2023/09/06 07:41:04;;;;;;;9.27;6.20;;;22.80;1.00;;;;;;5114228;28;20950;-71
2023/09/06 07:43:31;;;;;;;8.10;6.60;;;22.40;1.00;;;;;;5113801;28;20176;-70
2023/09/06 07:46:00;;;;;;;7.10;6.20;;;21.80;1.00;;;;;;5114240;28;20517;-70
2023/09/06 07:48:28;;;;;;;7.63;6.27;;;21.70;1.00;;;;;;5114111;28;20414;-70
2023/09/06 07:50:54;;;;;;;9.07;6.43;;;21.50;1.00;;;;;;5114112;28;20423;-70
2023/09/06 07:53:20;;;;;;;9.43;6.13;;;21.80;1.00;;;;;;5113682;28;20423;-69
2023/09/06 07:55:46;;;;;;;7.70;6.67;;;22.60;1.00;;;;;;5110952;28;20192;-70
2023/09/06 07:58:13;;;;;;;7.87;6.73;;;22.80;1.00;;;;;;5126067;22;20494;-70
2023/09/06 08:00:40;;;;;;;6.40;5.80;;;22.90;1.00;;;;;;5118535;28;20499;-70
2023/09/06 08:03:06;;;;;;;6.73;5.70;;;22.80;1.00;;;;;;5099900;28;20422;-71
2023/09/06 08:05:32;;;;;;;6.80;5.93;;;23.20;1.00;;;;;;5120519;28;20905;-71
2023/09/06 08:07:58;;;;;;;5.93;5.43;;;24.80;1.00;;;;;;5120113;28;20208;-71
2023/09/06 08:10:24;;;;;;;11.70;6.73;;;26.90;1.00;;;;;;5119895;28;20418;-72
2023/09/06 08:12:50;;;;;;;11.93;7.37;;;29.10;1.00;;;;;;5119290;28;20464;-71
2023/09/06 08:15:17;;;;;;;7.10;6.50;;;29.70;1.00;;;;;;5101197;28;20798;-72
2023/09/06 08:17:42;;;;;;;7.63;6.93;;;30.50;1.00;;;;;;5103199;28;21008;-71
2023/09/06 08:20:12;;;;;;;7.83;7.13;;;30.30;1.00;;;;;;5098375;28;20541;-73
2023/09/06 08:22:40;;;;;;;6.40;5.80;;;31.50;1.00;;;;;;5098771;28;20165;-72
2023/09/06 08:25:06;;;;;;;6.93;6.33;;;;;;;;;;5096655;28;20404;-71
2023/09/06 08:27:32;;;;;;;6.47;6.00;;;;;;;;;;5095540;28;20446;-71
2023/09/06 08:29:58;;;;;;;7.93;7.23;;;;;;;;;;5097065;28;20814;-72
2023/09/06 08:32:24;;;;;;;6.83;6.13;;;;;;;;;;5110801;28;20526;-72
2023/09/06 08:34:50;;;;;;;8.03;7.30;;;;;;;;;;5118034;28;20407;-71
2023/09/06 08:37:16;;;;;;;7.10;6.57;;;;;;;;;;5118612;28;20526;-71
2023/09/06 08:39:42;;;;;;;9.47;6.83;;;;;;;;;;5116957;28;20180;-71
2023/09/06 08:42:08;;;;;;;12.00;6.50;;;;;;;;;;5115495;28;20413;-72
2023/09/06 08:44:35;;;;;;;8.30;7.50;;;;;;;;;;5107977;28;20419;-71
2023/09/06 08:47:03;;;;;;;6.90;6.30;;;;;;;;;;5093959;28;20425;-71
2023/09/06 08:49:29;;;;;;;23.23;7.13;;;29.20;1.00;;;;;;5096597;28;20404;-71
2023/09/06 08:51:56;;;;;;;9.30;7.60;;;;;;;;;;5077593;28;20425;-72
2023/09/06 08:54:25;;;;;;;6.50;5.37;;;;;;;;;;5102018;28;20234;-70
2023/09/06 08:56:54;;;;;;;8.30;6.90;;;;;;;;;;5119551;28;20611;-71
2023/09/06 08:59:20;;;;;;;7.83;7.00;;;;;;;;;;5120210;28;20455;-71
2023/09/06 09:01:46;;;;;;;6.50;5.90;;;23.30;10.50;;;;;;5120885;28;20467;-69
2023/09/06 09:04:12;;;;;;;8.17;6.60;;;22.90;12.40;;;;;;5118314;28;20422;-71
2023/09/06 09:06:47;;;;;;;6.13;5.50;;;22.70;12.70;;;;;;5099965;28;20727;-70
2023/09/06 09:09:14;;;;;;;5.20;4.70;;;22.40;14.00;;;;;;5100785;28;20426;-71
2023/09/06 09:11:54;;;;;;;7.63;5.90;;;22.40;13.90;;;;;;5099982;28;20510;-71
2023/09/06 09:14:24;;;;;;;6.70;5.13;;;22.40;14.70;;;;;;5077974;28;20450;-71
2023/09/06 09:16:57;;;;;;;7.47;6.67;;;22.20;14.60;;;;;;5099949;28;20439;-71
2023/09/06 09:19:24;;;;;;;5.97;4.90;;;22.20;16.30;;;;;;5100140;28;20915;-71
2023/09/06 09:21:50;;;;;;;6.33;5.73;;;22.20;16.20;;;;;;5098626;28;20462;-71
2023/09/06 09:24:27;;;;;;;7.07;5.13;;;22.20;17.10;;;;;;5090012;28;20517;-70
2023/09/06 09:26:53;;;;;;;7.67;6.30;;;22.20;17.50;;;;;;5117968;28;20430;-71
2023/09/06 09:29:19;;;;;;;7.27;5.47;;;22.20;17.40;;;;;;5117858;28;20402;-70
2023/09/06 09:31:44;;;;;;;7.57;4.90;;;22.20;17.40;;;;;;5116197;28;20188;-70
2023/09/06 09:34:13;;;;;;;5.50;5.00;;;22.30;17.00;;;;;;5110130;28;20476;-71
2023/09/06 09:36:39;;;;;;;6.30;5.70;;;22.40;16.80;;;;;;5099799;28;20234;-71
2023/09/06 09:39:09;;;;;;;7.57;5.83;;;22.50;16.60;;;;;;5092790;28;20429;-70
2023/09/06 09:41:35;;;;;;;6.63;5.80;;;22.50;16.30;;;;;;5112427;28;20529;-71
2023/09/06 09:44:14;;;;;;;5.20;4.40;;;;;;;;;;5116159;28;20935;-70
2023/09/06 09:46:44;;;;;;;5.80;4.93;;;;;;;;;;5097424;28;20426;-71
2023/09/06 09:49:10;;;;;;;5.87;5.23;;;;;;;;;;5116325;28;20405;-71
2023/09/06 09:51:37;;;;;;;6.67;4.10;;;;;;;;;;5098279;28;20406;-71
2023/09/06 09:54:06;;;;;;;5.80;4.60;;;;;;;;;;5118849;28;20437;-71
2023/09/06 09:56:37;;;;;;;4.47;4.03;;;;;;;;;;5118515;28;20442;-71
2023/09/06 09:59:04;;;;;;;8.57;5.87;;;;;;;;;;5118314;28;20887;-70
2023/09/06 10:01:33;;;;;;;6.23;5.40;;;;;;;;;;5113394;28;20466;-70
2023/09/06 10:04:00;;;;;;;7.70;5.33;;;;;;;;;;5104700;28;20424;-71
2023/09/06 10:06:31;;;;;;;11.70;5.90;;;;;;;;;;5091784;28;20983;-71
2023/09/06 10:08:58;;;;;;;5.50;5.00;;;;;;;;;;5094593;28;20418;-71
2023/09/06 10:11:25;;;;;;;5.30;4.80;;;;;;;;;;5092743;28;20450;-71
2023/09/06 10:13:52;;;;;;;7.20;5.40;;;;;;;;;;5091755;28;20828;-70
2023/09/06 10:16:21;;;;;;;7.27;6.00;;;;;;;;;;5095044;28;20456;-70
2023/09/06 10:18:47;;;;;;;9.70;6.03;;;;;;;;;;5112317;28;20422;-70
2023/09/06 10:21:14;;;;;;;6.30;5.57;;;;;;;;;;5102676;28;20462;-70
2023/09/06 10:23:40;;;;;;;10.30;5.93;;;;;;;;;;5095200;28;20450;-70
2023/09/06 10:26:07;;;;;;;6.47;5.87;;;;;;;;;;5113041;28;20460;-70
2023/09/06 10:28:33;;;;;;;7.27;5.33;;;;;;;;;;5113271;28;20411;-70
2023/09/06 10:31:09;;;;;;;15.13;5.70;;;;;;;;;;5094740;28;20514;-71
2023/09/06 10:33:41;;;;;;;7.87;5.80;;;;;;;;;;5113024;28;20812;-70
2023/09/06 10:36:17;;;;;;;7.50;5.40;;;;;;;;;;5115755;28;20426;-71
2023/09/06 10:38:52;;;;;;;6.03;5.53;;;;;;;;;;5100601;28;20497;-70
2023/09/06 10:41:27;;;;;;;5.17;4.63;;;;;;;;;;5114335;28;20472;-72
2023/09/06 10:44:00;;;;;;;6.13;5.53;;;;;;;;;;5114963;28;20505;-71
2023/09/06 10:46:37;;;;;;;5.57;5.00;;;;;;;;;;5114997;28;20803;-72
2023/09/06 10:49:22;;;;;;;7.00;6.00;;;;;;;;;;5096653;28;20406;-72
2023/09/06 10:51:57;;;;;;;8.03;6.77;;;;;;;;;;5074239;28;20444;-72
2023/09/06 10:54:24;;;;;;;10.57;5.30;;;;;;;;;;5060444;28;20430;-71
2023/09/06 10:56:58;;;;;;;5.00;4.50;;;;;;;;;;5092042;28;20523;-71
2023/09/06 10:59:24;;;;;;;8.10;5.23;;;;;;;;;;5114699;28;20406;-72
2023/09/06 11:02:09;;;;;;;6.33;5.73;;;;;;;;;;5096240;28;21039;-72
2023/09/06 11:04:35;;;;;;;5.93;5.43;;;;;;;;;;5096455;28;20403;-71
2023/09/06 11:07:10;;;;;;;6.80;6.10;;;;;;;;;;5114596;28;20424;-71
2023/09/06 11:09:50;;;;;;;7.97;6.00;;;;;;;;;;5106856;28;20472;-71
2023/09/06 11:12:16;;;;;;;6.07;5.37;;;;;;;;;;5108137;28;20422;-72
2023/09/06 11:14:43;;;;;;;5.97;5.37;;;;;;;;;;5114646;28;20452;-71
2023/09/06 11:17:19;;;;;;;6.83;6.17;;;;;;;;;;5096280;28;20426;-71
2023/09/06 11:19:44;;;;;;;5.83;5.23;;;;;;;;;;5114021;28;20402;-72
2023/09/06 11:22:11;;;;;;;6.23;5.07;;;;;;;;;;5114221;28;20754;-71
2023/09/06 11:24:37;;;;;;;6.43;5.40;;;;;;;;;;5096087;28;20420;-71
2023/09/06 11:27:16;;;;;;;13.60;6.37;;;;;;;;;;5114190;28;20434;-72
2023/09/06 11:29:43;;;;;;;6.47;5.80;;;;;;;;;;5113976;28;20911;-72
2023/09/06 11:32:11;;;;;;;8.13;6.67;;;;;;;;;;5113985;28;20425;-72
2023/09/06 11:34:46;;;;;;;6.50;5.90;;;;;;;;;;5114446;28;20407;-71
2023/09/06 11:37:15;;;;;;;9.63;6.83;;;;;;;;;;5095805;28;20923;-72
2023/09/06 11:39:42;;;;;;;5.70;5.20;;;;;;;;;;5113734;28;20419;-72
2023/09/06 11:42:14;;;;;;;6.67;6.07;;;;;;;;;;5114169;28;20418;-71
2023/09/06 11:44:47;;;;;;;8.30;5.57;;;;;;;;;;5114141;28;20419;-72
2023/09/06 11:47:14;;;;;;;7.33;6.63;;;;;;;;;;5113973;28;20450;-73
2023/09/06 11:49:40;;;;;;;6.40;5.40;;;;;;;;;;5112935;28;20439;-73
2023/09/06 11:52:07;;;;;;;7.03;5.60;;;;;;;;;;5113924;28;20918;-72
2023/09/06 11:54:38;;;;;;;7.30;6.70;;;;;;;;;;5113753;28;20434;-71
2023/09/06 11:57:05;;;;;;;7.20;6.50;;;;;;;;;;5113609;28;20536;-70
2023/09/06 11:59:32;;;;;;;17.13;7.00;;;;;;;;;;5107785;28;20435;-71
2023/09/06 12:01:59;;;;;;;5.90;5.30;;;;;;;;;;5092860;28;20796;-72
2023/09/06 12:04:28;;;;;;;6.40;5.90;;;;;;;;;;5095999;28;20429;-71
2023/09/06 12:06:55;;;;;;;6.67;6.07;;;;;;;;;;5093051;28;20493;-71
2023/09/06 12:09:21;;;;;;;9.23;7.20;;;;;;;;;;5092536;28;20411;-72
2023/09/06 12:11:47;;;;;;;6.90;6.20;;;;;;;;;;5093050;28;20502;-71
2023/09/06 12:14:15;;;;;;;7.70;6.90;;;;;;;;;;5091676;28;20441;-71
2023/09/06 12:16:42;;;;;;;7.10;6.40;;;;;;;;;;5092574;28;20474;-71
2023/09/06 12:19:12;;;;;;;6.60;5.90;;;;;;;;;;5075922;28;20419;-71
2023/09/06 12:21:38;;;;;;;7.37;5.70;;;;;;;;;;5097865;28;20511;-72
2023/09/06 12:24:04;;;;;;;8.00;7.20;;;;;;;;;;5097381;28;20922;-71
2023/09/06 12:26:30;;;;;;;9.70;6.30;;;;;;;;;;5093788;28;20503;-72
2023/09/06 12:28:56;;;;;;;9.47;6.20;;;;;;;;;;5075293;28;20434;-71
2023/09/06 12:31:22;;;;;;;6.33;5.73;;;;;;;;;;5075772;28;20420;-72
2023/09/06 12:33:51;;;;;;;9.40;6.40;;;;;;;;;;5092574;28;20496;-69
2023/09/06 12:36:17;;;;;;;9.03;5.80;;;;;;;;;;5076534;28;20431;-72
2023/09/06 12:38:43;;;;;;;6.00;5.50;;;;;;;;;;5079000;28;20411;-72
2023/09/06 12:41:09;;;;;;;5.40;4.90;;;;;;;;;;5097263;28;20546;-72
2023/09/06 12:43:36;;;;;;;8.20;7.50;;;;;;;;;;5094919;28;20415;-74
2023/09/06 12:46:02;;;;;;;7.33;6.30;;;;;;;;;;5095557;28;20417;-68
2023/09/06 12:48:28;;;;;;;6.23;5.73;;;;;;;;;;5094370;28;20423;-69
2023/09/06 12:50:54;;;;;;;9.93;5.30;;;;;;;;;;5093078;28;20445;-68
2023/09/06 12:53:22;;;;;;;5.27;4.77;;;;;;;;;;5093273;28;20457;-68
2023/09/06 12:55:48;;;;;;;5.50;5.00;;;;;;;;;;5092304;28;20422;-68
2023/09/06 12:58:14;;;;;;;5.97;5.57;;;;;;;;;;5092503;28;20809;-68
2023/09/06 13:00:41;;;;;;;6.00;5.40;;;;;;;;;;5093092;28;20482;-68
2023/09/06 13:03:07;;;;;;;5.73;5.23;;;;;;;;;;5092888;28;20425;-69
2023/09/06 13:05:33;;;;;;;6.30;5.73;;;;;;;;;;5093987;28;20894;-70
2023/09/06 13:08:02;;;;;;;5.93;5.17;;;;;;;;;;5093694;28;20828;-68
2023/09/06 13:10:29;;;;;;;7.47;5.40;;;;;;;;;;5093544;28;20404;-69
2023/09/06 13:12:55;;;;;;;10.43;6.07;;;;;;;;;;5093696;28;20469;-69
2023/09/06 13:15:22;;;;;;;5.97;5.43;;;;;;;;;;5093298;28;20502;-68
2023/09/06 13:17:48;;;;;;;5.63;5.13;;;;;;;;;;5092649;28;20431;-69
2023/09/06 13:20:14;;;;;;;5.93;5.33;;;;;;;;;;5092584;28;20508;-69
2023/09/06 13:22:42;;;;;;;8.80;6.57;;;;;;;;;;5075060;28;20912;-69
2023/09/06 13:25:08;;;;;;;5.97;5.37;;;;;;;;;;5092852;28;20412;-68
2023/09/06 13:27:34;;;;;;;5.93;5.30;;;;;;;;;;5092637;28;20423;-69
2023/09/06 13:30:01;;;;;;;5.40;5.00;;;;;;;;;;5093778;28;20443;-69